createdAt,value
2023-01-30T00:00:35.073Z,99206.44
2023-01-30T00:03:07.455Z,99200.47
2023-01-30T00:05:40.501Z,99203.72
2023-01-30T00:08:13.230Z,99184.13
2023-01-30T00:10:46.335Z,99167.53
2023-01-30T00:13:18.680Z,99159.50
2023-01-30T00:15:51.434Z,99138.97
2023-01-30T00:18:23.855Z,99140.47
2023-01-30T00:20:58.299Z,99137.72
2023-01-30T00:23:32.494Z,99123.31
2023-01-30T00:26:06.033Z,99123.88
2023-01-30T00:28:40.024Z,99136.09
2023-01-30T00:31:11.960Z,99135.69
2023-01-30T00:33:45.104Z,99130.66
2023-01-30T00:36:17.001Z,99133.78
2023-01-30T00:38:49.673Z,99135.78
2023-01-30T00:41:23.452Z,99133.78
2023-01-30T00:44:13.956Z,99112.16
2023-01-30T00:47:04.955Z,99111.75
2023-01-30T00:49:38.214Z,99090.81
2023-01-30T00:52:10.528Z,99085.09
2023-01-30T00:54:42.442Z,99097.47
2023-01-30T00:57:15.090Z,99105.22
2023-01-30T00:59:49.625Z,99100.06
2023-01-30T01:02:22.099Z,99103.59
2023-01-30T01:04:54.421Z,99076.56
2023-01-30T01:07:26.316Z,99081.16
2023-01-30T01:09:59.585Z,99077.88
2023-01-30T01:12:32.137Z,99070.97
2023-01-30T01:15:06.235Z,99082.38
2023-01-30T01:17:39.520Z,99084.72
2023-01-30T01:20:13.443Z,99087.13
2023-01-30T01:22:50.047Z,99085.78
2023-01-30T01:25:23.592Z,99091.50
2023-01-30T01:27:58.682Z,99091.91
2023-01-30T01:30:31.111Z,99103.06
2023-01-30T01:33:03.856Z,99134.34
2023-01-30T01:35:41.740Z,99153.81
2023-01-30T01:38:14.051Z,99158.06
2023-01-30T01:41:05.746Z,99165.66
2023-01-30T01:44:03.334Z,99185.53
2023-01-30T01:46:54.255Z,99198.56
2023-01-30T01:49:34.286Z,99218.31
2023-01-30T01:52:13.611Z,99237.81
2023-01-30T01:55:01.826Z,99251.44
2023-01-30T01:57:44.322Z,99251.03
2023-01-30T02:00:20.389Z,99253.78
2023-01-30T02:03:04.863Z,99258.25
2023-01-30T02:05:43.267Z,99252.38
2023-01-30T02:08:35.416Z,99239.31
2023-01-30T02:11:30.942Z,99225.88
2023-01-30T02:14:03.303Z,99238.22
2023-01-30T02:16:37.961Z,99233.56
2023-01-30T02:19:51.336Z,99224.19
2023-01-30T02:22:36.003Z,99232.00
2023-01-30T02:25:21.312Z,99218.78
2023-01-30T02:28:46.276Z,99214.09
2023-01-30T02:31:40.959Z,99214.75
2023-01-30T02:34:19.802Z,99220.59
2023-01-30T02:37:31.527Z,99215.97
2023-01-30T02:40:30.649Z,99198.41
2023-01-30T02:44:04.416Z,99199.66
2023-01-30T02:46:58.004Z,99194.31
2023-01-30T02:49:38.327Z,99185.84
2023-01-30T02:52:14.217Z,99193.97
2023-01-30T02:54:46.594Z,99183.59
2023-01-30T02:57:23.237Z,99176.63
2023-01-30T03:00:02.771Z,99199.25
2023-01-30T03:03:07.371Z,99184.81
2023-01-30T03:06:14.887Z,99217.91
2023-01-30T03:09:33.179Z,99217.09
2023-01-30T03:12:14.113Z,99194.06
2023-01-30T03:15:24.742Z,99173.94
2023-01-30T03:17:57.462Z,99184.69
2023-01-30T03:20:31.220Z,99184.44
2023-01-30T03:23:04.026Z,99182.00
2023-01-30T03:25:39.783Z,99164.56
2023-01-30T03:28:35.572Z,99159.69
2023-01-30T03:31:09.151Z,99161.84
2023-01-30T03:33:42.895Z,99168.94
2023-01-30T03:36:15.214Z,99162.94
2023-01-30T03:38:48.063Z,99148.50
2023-01-30T03:41:20.015Z,99126.88
2023-01-30T03:43:52.735Z,99138.03
2023-01-30T03:46:25.418Z,99150.03
2023-01-30T03:48:58.273Z,99145.66
2023-01-30T03:51:32.461Z,99141.31
2023-01-30T03:54:04.911Z,99139.25
2023-01-30T03:56:37.097Z,99132.44
2023-01-30T03:59:09.619Z,99127.16
2023-01-30T04:01:48.303Z,99100.59
2023-01-30T04:04:21.107Z,99108.91
2023-01-30T04:06:53.636Z,99091.88
2023-01-30T04:09:26.601Z,99099.84
2023-01-30T04:11:58.806Z,99112.22
2023-01-30T04:14:41.789Z,99103.69
2023-01-30T04:17:25.919Z,99110.59
2023-01-30T04:20:05.065Z,99103.28
2023-01-30T04:22:39.740Z,99114.19
2023-01-30T04:25:12.838Z,99105.88
2023-01-30T04:27:44.819Z,99117.06
2023-01-30T04:30:23.607Z,99129.16
2023-01-30T04:33:00.708Z,99139.56
2023-01-30T04:35:34.055Z,99148.50
2023-01-30T04:38:06.059Z,99144.56
2023-01-30T04:40:38.820Z,99134.34
2023-01-30T04:43:11.282Z,99156.72
2023-01-30T04:46:04.009Z,99170.28
2023-01-30T04:48:36.092Z,99187.44
2023-01-30T04:51:09.188Z,99166.91
2023-01-30T04:53:42.905Z,99164.22
2023-01-30T04:56:16.428Z,99155.06
2023-01-30T04:58:48.907Z,99167.13
2023-01-30T05:01:30.401Z,99155.75
2023-01-30T05:04:04.033Z,99155.03
2023-01-30T05:06:37.492Z,99162.19
2023-01-30T05:09:09.814Z,99158.53
2023-01-30T05:11:41.690Z,99151.91
2023-01-30T05:14:17.085Z,99141.63
2023-01-30T05:16:49.441Z,99135.31
2023-01-30T05:19:22.613Z,99140.22
2023-01-30T05:21:54.468Z,99145.88
2023-01-30T05:24:27.441Z,99161.81
2023-01-30T05:26:59.838Z,99185.53
2023-01-30T05:29:31.799Z,99168.75
2023-01-30T05:32:05.141Z,99158.78
2023-01-30T05:34:37.478Z,99149.28
2023-01-30T05:37:12.797Z,99159.94
2023-01-30T05:39:46.057Z,99164.34
2023-01-30T05:42:18.006Z,99176.50
2023-01-30T05:44:50.783Z,99179.66
2023-01-30T05:47:22.694Z,99181.91
2023-01-30T05:49:55.392Z,99159.41
2023-01-30T05:52:27.727Z,99142.91
2023-01-30T05:55:00.046Z,99148.09
2023-01-30T05:57:32.734Z,99150.38
2023-01-30T06:00:06.856Z,99126.81
2023-01-30T06:02:45.261Z,99120.13
2023-01-30T06:05:17.738Z,99113.03
2023-01-30T06:07:50.647Z,99104.63
2023-01-30T06:10:22.984Z,99125.63
2023-01-30T06:12:55.348Z,99146.88
2023-01-30T06:15:27.741Z,99137.28
2023-01-30T06:18:00.121Z,99127.94
2023-01-30T06:20:32.425Z,99149.63
2023-01-30T06:23:05.198Z,99133.59
2023-01-30T06:25:37.557Z,99130.59
2023-01-30T06:28:09.462Z,99136.44
2023-01-30T06:30:43.083Z,99132.72
2023-01-30T06:33:15.292Z,99133.59
2023-01-30T06:35:51.601Z,99133.97
2023-01-30T06:38:24.128Z,99143.34
2023-01-30T06:40:58.317Z,99130.63
2023-01-30T06:43:30.327Z,99126.22
2023-01-30T06:46:03.143Z,99121.91
2023-01-30T06:48:35.488Z,99129.91
2023-01-30T06:51:07.943Z,99137.28
2023-01-30T06:53:40.216Z,99123.03
2023-01-30T06:56:13.126Z,99147.19
2023-01-30T06:58:45.535Z,99132.00
2023-01-30T07:01:21.179Z,99124.06
2023-01-30T07:03:53.569Z,99123.78
2023-01-30T07:06:27.650Z,99117.59
2023-01-30T07:09:00.441Z,99113.75
2023-01-30T07:11:32.341Z,99116.88
2023-01-30T07:14:06.344Z,99125.25
2023-01-30T07:16:40.266Z,99101.13
2023-01-30T07:19:13.259Z,99098.31
2023-01-30T07:21:46.359Z,99088.53
2023-01-30T07:24:18.255Z,99090.28
2023-01-30T07:26:51.145Z,99091.63
2023-01-30T07:29:24.076Z,99089.31
2023-01-30T07:31:56.295Z,99099.53
2023-01-30T07:34:29.341Z,99114.78
2023-01-30T07:37:01.217Z,99119.00
2023-01-30T07:39:34.172Z,99119.47
2023-01-30T07:42:06.499Z,99111.56
2023-01-30T07:44:39.325Z,99105.28
2023-01-30T07:47:11.243Z,99120.59
2023-01-30T07:49:44.646Z,99114.78
2023-01-30T07:52:16.548Z,99132.28
2023-01-30T07:54:48.941Z,99135.31
2023-01-30T07:57:21.233Z,99145.69
2023-01-30T07:59:54.226Z,99141.22
2023-01-30T08:02:26.386Z,99164.50
2023-01-30T08:04:59.207Z,99169.25
2023-01-30T08:07:31.146Z,99163.25
2023-01-30T08:10:04.558Z,99172.19
2023-01-30T08:12:36.486Z,99158.50
2023-01-30T08:15:10.822Z,99152.84
2023-01-30T08:17:43.155Z,99139.63
2023-01-30T08:20:17.609Z,99148.91
2023-01-30T08:22:49.727Z,99151.63
2023-01-30T08:25:24.145Z,99143.09
2023-01-30T08:27:56.913Z,99145.28
2023-01-30T08:30:32.818Z,99128.34
2023-01-30T08:33:06.153Z,99104.41
2023-01-30T08:35:42.145Z,99092.22
2023-01-30T08:38:15.569Z,99117.28
2023-01-30T08:40:48.084Z,99124.91
2023-01-30T08:43:20.038Z,99131.59
2023-01-30T08:45:57.074Z,99140.34
2023-01-30T08:48:34.113Z,99154.50
2023-01-30T08:51:13.344Z,99159.28
2023-01-30T08:53:45.845Z,99169.56
2023-01-30T08:56:40.059Z,99181.09
2023-01-30T08:59:12.049Z,99191.28
2023-01-30T09:01:44.796Z,99182.34
2023-01-30T09:04:17.136Z,99174.94
2023-01-30T09:06:50.138Z,99180.47
2023-01-30T09:09:22.073Z,99175.72
2023-01-30T09:11:54.829Z,99183.19
2023-01-30T09:14:27.291Z,99168.97
2023-01-30T09:17:00.251Z,99184.00
2023-01-30T09:19:32.798Z,99172.41
2023-01-30T09:22:05.308Z,99173.31
2023-01-30T09:24:38.022Z,99162.69
2023-01-30T09:27:10.184Z,99155.69
2023-01-30T09:29:45.175Z,99161.69
2023-01-30T09:32:17.324Z,99167.28
2023-01-30T09:34:50.099Z,99143.31
2023-01-30T09:37:22.064Z,99142.19
2023-01-30T09:39:54.786Z,99142.97
2023-01-30T09:42:47.816Z,99134.13
2023-01-30T09:45:47.249Z,99151.34
2023-01-30T09:48:35.747Z,99150.69
2023-01-30T09:51:35.392Z,99145.66
2023-01-30T09:54:25.257Z,99145.50
2023-01-30T09:57:21.716Z,99137.66
2023-01-30T10:00:09.983Z,99113.84
2023-01-30T10:03:06.387Z,99121.19
2023-01-30T10:05:52.867Z,99131.03
2023-01-30T10:08:49.354Z,99139.72
2023-01-30T10:11:47.945Z,99155.34
2023-01-30T10:14:36.627Z,99146.16
2023-01-30T10:17:32.945Z,99143.47
2023-01-30T10:20:52.245Z,99140.66
2023-01-30T10:24:00.036Z,99136.44
2023-01-30T10:26:33.705Z,99130.25
2023-01-30T10:29:15.449Z,99099.66
2023-01-30T10:32:04.277Z,99094.16
2023-01-30T10:34:40.939Z,99104.97
2023-01-30T10:37:30.192Z,99102.38
2023-01-30T10:40:04.880Z,99104.16
2023-01-30T10:43:08.924Z,99095.38
2023-01-30T10:45:55.258Z,99080.09
2023-01-30T10:48:59.550Z,99086.34
2023-01-30T10:51:51.478Z,99066.16
2023-01-30T10:54:38.593Z,99069.34
2023-01-30T10:58:04.631Z,99070.34
2023-01-30T11:00:44.068Z,99063.63
2023-01-30T11:03:37.594Z,99053.16
2023-01-30T11:06:17.791Z,99039.66
2023-01-30T11:08:51.313Z,99043.72
2023-01-30T11:11:26.214Z,99041.66
2023-01-30T11:14:08.356Z,99049.34
2023-01-30T11:16:50.423Z,99046.19
2023-01-30T11:19:33.952Z,99046.56
2023-01-30T11:22:06.743Z,99043.44
2023-01-30T11:24:45.713Z,99030.66
2023-01-30T11:27:19.227Z,99019.00
2023-01-30T11:30:14.903Z,99021.56
2023-01-30T11:32:49.896Z,99015.50
2023-01-30T11:35:27.984Z,99004.81
2023-01-30T11:38:26.614Z,99012.78
2023-01-30T11:41:21.490Z,99004.00
2023-01-30T11:44:02.209Z,99010.22
2023-01-30T11:46:37.405Z,99001.38
2023-01-30T11:49:47.702Z,98994.66
2023-01-30T11:52:08.682Z,98991.06
2023-01-30T11:54:44.881Z,98988.16
2023-01-30T11:57:19.177Z,98979.56
2023-01-30T12:00:00.407Z,98975.44
2023-01-30T12:02:36.169Z,98983.19
2023-01-30T12:05:28.706Z,98972.19
2023-01-30T12:08:44.052Z,98974.97
2023-01-30T12:11:42.404Z,98992.28
2023-01-30T12:14:27.862Z,99003.22
2023-01-30T12:17:11.648Z,99012.16
2023-01-30T12:20:08.089Z,98988.75
2023-01-30T12:23:08.173Z,98994.66
2023-01-30T12:25:54.555Z,98994.13
2023-01-30T12:28:55.736Z,99010.00
2023-01-30T12:31:35.932Z,99018.34
2023-01-30T12:34:10.715Z,99034.25
2023-01-30T12:37:03.448Z,98997.13
2023-01-30T12:39:50.920Z,98994.16
2023-01-30T12:42:56.919Z,99003.84
2023-01-30T12:45:39.649Z,98967.06
2023-01-30T12:49:10.376Z,98974.50
2023-01-30T12:51:49.341Z,98976.31
2023-01-30T12:54:48.376Z,98976.91
2023-01-30T12:57:35.271Z,98967.78
2023-01-30T13:00:39.488Z,98978.59
2023-01-30T13:03:50.851Z,98963.09
2023-01-30T13:07:06.433Z,98963.19
2023-01-30T13:09:45.867Z,98962.38
2023-01-30T13:13:01.905Z,98968.66
2023-01-30T13:15:53.394Z,98974.28
2023-01-30T13:18:52.995Z,98970.56
2023-01-30T13:22:13.681Z,98982.19
2023-01-30T13:25:15.087Z,98963.81
2023-01-30T13:27:56.142Z,98959.00
2023-01-30T13:30:31.438Z,98955.03
2023-01-30T13:33:21.410Z,98947.91
2023-01-30T13:36:24.725Z,98965.03
2023-01-30T13:39:06.457Z,98947.28
2023-01-30T13:41:48.374Z,98951.75
2023-01-30T13:44:31.249Z,98953.56
2023-01-30T13:47:23.440Z,98948.78
2023-01-30T13:50:20.788Z,98955.31
2023-01-30T13:53:04.828Z,98960.19
2023-01-30T13:55:52.604Z,98957.34
2023-01-30T13:58:46.828Z,98967.22
2023-01-30T14:01:21.145Z,98962.72
2023-01-30T14:03:53.389Z,98973.63
2023-01-30T14:06:34.541Z,98967.72
2023-01-30T14:09:22.033Z,98974.97
2023-01-30T14:12:01.045Z,98969.16
2023-01-30T14:14:38.582Z,98971.00
2023-01-30T14:17:16.417Z,98984.50
2023-01-30T14:20:05.765Z,98991.97
2023-01-30T14:22:54.780Z,98967.59
2023-01-30T14:25:30.251Z,98989.38
2023-01-30T14:28:04.793Z,98985.44
2023-01-30T14:31:01.840Z,98977.34
2023-01-30T14:33:36.952Z,98991.31
2023-01-30T14:36:15.482Z,99010.84
2023-01-30T14:38:57.667Z,99008.72
2023-01-30T14:41:30.636Z,99016.75
2023-01-30T14:44:02.964Z,99034.63
2023-01-30T14:46:54.036Z,99024.63
2023-01-30T14:49:30.527Z,99017.81
2023-01-30T14:52:03.906Z,99026.31
2023-01-30T14:54:42.954Z,99028.75
2023-01-30T14:57:22.944Z,99036.75
2023-01-30T15:00:18.656Z,99035.31
2023-01-30T15:03:07.001Z,99043.47
2023-01-30T15:05:45.076Z,99045.25
2023-01-30T15:08:22.757Z,99054.75
2023-01-30T15:11:11.378Z,99061.13
2023-01-30T15:13:47.995Z,99061.41
2023-01-30T15:16:55.447Z,99072.50
2023-01-30T15:19:49.287Z,99078.22
2023-01-30T15:22:57.502Z,99078.63
2023-01-30T15:26:11.646Z,99090.78
2023-01-30T15:29:19.886Z,99104.19
2023-01-30T15:32:01.354Z,99109.91
2023-01-30T15:34:37.173Z,99120.78
2023-01-30T15:37:32.439Z,99118.69
2023-01-30T15:40:18.574Z,99115.19
2023-01-30T15:43:15.194Z,99112.00
2023-01-30T15:46:15.276Z,99116.94
2023-01-30T15:49:05.603Z,99101.34
2023-01-30T15:51:38.130Z,99107.16
2023-01-30T15:54:16.707Z,99116.75
2023-01-30T15:56:49.931Z,99121.50
2023-01-30T15:59:40.263Z,99112.31
2023-01-30T16:02:21.139Z,99126.31
2023-01-30T16:05:18.032Z,99140.97
2023-01-30T16:07:52.765Z,99144.25
2023-01-30T16:10:29.061Z,99161.66
2023-01-30T16:13:04.072Z,99158.06
2023-01-30T16:16:13.749Z,99164.25
2023-01-30T16:18:57.679Z,99165.22
2023-01-30T16:21:40.514Z,99178.00
2023-01-30T16:24:25.111Z,99186.34
2023-01-30T16:27:04.987Z,99158.63
2023-01-30T16:29:53.449Z,99173.88
2023-01-30T16:32:32.965Z,99168.78
2023-01-30T16:35:27.155Z,99182.03
2023-01-30T16:38:02.559Z,99174.88
2023-01-30T16:40:46.474Z,99181.81
2023-01-30T16:43:24.847Z,99190.91
2023-01-30T16:46:46.753Z,99191.19
2023-01-30T16:49:37.467Z,99201.63
2023-01-30T16:52:26.537Z,99204.44
2023-01-30T16:55:02.658Z,99202.50
2023-01-30T16:57:40.368Z,99206.00
2023-01-30T17:00:20.924Z,99209.53
2023-01-30T17:03:06.360Z,99215.72
2023-01-30T17:05:41.506Z,99218.84
2023-01-30T17:08:31.792Z,99221.91
2023-01-30T17:11:05.260Z,99225.50
2023-01-30T17:13:41.573Z,99232.81
2023-01-30T17:16:24.412Z,99229.06
2023-01-30T17:18:58.279Z,99228.41
2023-01-30T17:21:45.527Z,99218.13
2023-01-30T17:24:21.130Z,99227.06
2023-01-30T17:27:02.802Z,99238.94
2023-01-30T17:29:43.425Z,99239.50
2023-01-30T17:32:16.566Z,99247.31
2023-01-30T17:34:49.202Z,99260.34
2023-01-30T17:37:24.490Z,99267.63
2023-01-30T17:39:57.587Z,99268.69
2023-01-30T17:42:29.564Z,99266.63
2023-01-30T17:45:03.119Z,99260.66
2023-01-30T17:47:35.993Z,99269.94
2023-01-30T17:50:14.035Z,99281.81
2023-01-30T17:52:46.043Z,99282.28
2023-01-30T17:55:20.288Z,99282.47
2023-01-30T17:57:53.079Z,99288.75
2023-01-30T18:00:25.848Z,99288.38
2023-01-30T18:02:57.784Z,99284.13
2023-01-30T18:05:30.767Z,99285.78
2023-01-30T18:08:03.069Z,99286.22
2023-01-30T18:10:35.384Z,99292.44
2023-01-30T18:13:07.292Z,99291.19
2023-01-30T18:15:40.288Z,99291.75
2023-01-30T18:18:20.127Z,99304.03
2023-01-30T18:20:53.120Z,99299.16
2023-01-30T18:23:25.118Z,99301.41
2023-01-30T18:25:57.726Z,99309.50
2023-01-30T18:28:29.751Z,99312.22
2023-01-30T18:31:02.542Z,99309.81
2023-01-30T18:33:34.894Z,99309.91
2023-01-30T18:36:09.991Z,99306.16
2023-01-30T18:38:42.575Z,99300.41
2023-01-30T18:41:21.491Z,99305.25
2023-01-30T18:43:58.131Z,99304.38
2023-01-30T18:46:30.834Z,99311.38
2023-01-30T18:49:03.504Z,99313.00
2023-01-30T18:51:35.415Z,99314.34
2023-01-30T18:54:08.043Z,99308.34
2023-01-30T18:56:39.960Z,99313.38
2023-01-30T18:59:13.019Z,99314.91
2023-01-30T19:01:45.765Z,99311.94
2023-01-30T19:04:18.553Z,99311.53
2023-01-30T19:06:50.457Z,99314.34
2023-01-30T19:09:23.152Z,99313.09
2023-01-30T19:12:13.539Z,99308.09
2023-01-30T19:14:46.499Z,99317.63
2023-01-30T19:17:18.375Z,99318.41
2023-01-30T19:19:51.141Z,99318.31
2023-01-30T19:22:23.660Z,99321.59
2023-01-30T19:24:56.266Z,99326.16
2023-01-30T19:27:28.147Z,99327.41
2023-01-30T19:30:00.776Z,99329.31
2023-01-30T19:32:32.879Z,99337.13
2023-01-30T19:35:06.133Z,99339.63
2023-01-30T19:37:39.176Z,99341.88
2023-01-30T19:40:12.096Z,99339.63
2023-01-30T19:42:44.797Z,99342.56
2023-01-30T19:45:17.827Z,99338.69
2023-01-30T19:47:49.755Z,99343.16
2023-01-30T19:50:22.354Z,99340.44
2023-01-30T19:52:54.307Z,99345.75
2023-01-30T19:55:27.128Z,99354.25
2023-01-30T19:57:59.461Z,99359.47
2023-01-30T20:00:31.883Z,99368.75
2023-01-30T20:03:03.964Z,99360.50
2023-01-30T20:05:36.292Z,99372.97
2023-01-30T20:08:08.748Z,99372.78
2023-01-30T20:10:42.711Z,99378.59
2023-01-30T20:13:15.034Z,99385.63
2023-01-30T20:15:47.329Z,99382.16
2023-01-30T20:18:19.596Z,99386.22
2023-01-30T20:20:51.469Z,99383.91
2023-01-30T20:23:24.367Z,99387.28
2023-01-30T20:25:56.294Z,99384.50
2023-01-30T20:28:28.267Z,99378.78
2023-01-30T20:31:01.049Z,99383.44
2023-01-30T20:33:33.661Z,99383.53
2023-01-30T20:36:09.818Z,99387.09
2023-01-30T20:38:44.217Z,99388.34
2023-01-30T20:41:22.607Z,99397.63
2023-01-30T20:43:59.740Z,99401.69
2023-01-30T20:46:41.555Z,99401.28
2023-01-30T20:49:20.896Z,99394.13
2023-01-30T20:51:54.340Z,99403.50
2023-01-30T20:54:26.934Z,99403.28
2023-01-30T20:56:59.069Z,99406.19
2023-01-30T20:59:32.053Z,99424.56
2023-01-30T21:02:04.277Z,99424.88
2023-01-30T21:04:38.310Z,99426.91
2023-01-30T21:07:10.272Z,99431.63
2023-01-30T21:09:42.840Z,99426.03
2023-01-30T21:12:14.775Z,99437.16
2023-01-30T21:14:47.334Z,99421.78
2023-01-30T21:17:19.600Z,99432.53
2023-01-30T21:19:52.126Z,99437.06
2023-01-30T21:22:23.988Z,99441.03
2023-01-30T21:24:56.646Z,99447.00
2023-01-30T21:27:28.533Z,99459.47
2023-01-30T21:30:00.850Z,99457.22
2023-01-30T21:32:33.030Z,99463.34
2023-01-30T21:35:06.248Z,99464.84
2023-01-30T21:37:56.594Z,99466.41
2023-01-30T21:40:47.691Z,99466.41
2023-01-30T21:43:19.753Z,99468.91
2023-01-30T21:45:58.168Z,99478.59
2023-01-30T21:48:30.522Z,99467.75
2023-01-30T21:51:11.778Z,99476.84
2023-01-30T21:53:43.695Z,99480.50
2023-01-30T21:56:16.842Z,99478.59
2023-01-30T21:58:49.691Z,99478.66
2023-01-30T22:01:23.083Z,99483.56
2023-01-30T22:03:58.796Z,99482.69
2023-01-30T22:06:31.285Z,99490.84
2023-01-30T22:09:06.241Z,99495.16
2023-01-30T22:11:38.778Z,99498.44
2023-01-30T22:14:15.030Z,99509.69
2023-01-30T22:16:46.955Z,99507.09
2023-01-30T22:19:19.910Z,99510.16
2023-01-30T22:21:51.822Z,99507.25
2023-01-30T22:24:24.483Z,99518.25
2023-01-30T22:26:56.663Z,99527.69
2023-01-30T22:29:29.536Z,99515.78
2023-01-30T22:32:01.469Z,99524.75
2023-01-30T22:34:35.965Z,99520.09
2023-01-30T22:37:07.983Z,99521.91
2023-01-30T22:39:41.267Z,99530.97
2023-01-30T22:42:13.747Z,99521.63
2023-01-30T22:44:46.316Z,99519.25
2023-01-30T22:47:18.278Z,99524.69
2023-01-30T22:49:50.878Z,99516.41
2023-01-30T22:52:22.770Z,99526.09
2023-01-30T22:54:55.316Z,99536.63
2023-01-30T22:57:27.216Z,99526.22
2023-01-30T22:59:59.809Z,99525.63
2023-01-30T23:02:32.149Z,99537.03
2023-01-30T23:05:23.023Z,99527.88
2023-01-30T23:07:54.903Z,99516.88
2023-01-30T23:10:27.620Z,99517.56
2023-01-30T23:13:08.196Z,99514.09
2023-01-30T23:15:43.248Z,99514.44
2023-01-30T23:18:34.083Z,99516.25
2023-01-30T23:21:12.083Z,99514.78
2023-01-30T23:23:45.325Z,99514.09
2023-01-30T23:26:17.285Z,99511.03
2023-01-30T23:28:50.440Z,99510.94
2023-01-30T23:31:26.458Z,99510.34
2023-01-30T23:34:03.816Z,99501.50
2023-01-30T23:36:35.752Z,99500.78
2023-01-30T23:39:08.637Z,99504.88
2023-01-30T23:41:43.365Z,99501.53
2023-01-30T23:44:19.386Z,99500.63
2023-01-30T23:46:52.870Z,99498.38
2023-01-30T23:49:25.247Z,99490.00
2023-01-30T23:51:57.680Z,99492.59
2023-01-30T23:54:30.013Z,99481.97
2023-01-30T23:57:02.186Z,99485.47
2023-01-30T23:59:35.055Z,99477.88
